WEATHER DATA

TODAY
Time Temp. Dewp. Hum. Wind dir Wind speed Wind gust Bar. 1h Prec. 24h Prec.
00:02 11.5 9.4 87 243 0.8 1.4 1023.2 0.0000 0.0000
00:23 11.2 9.1 87 244 0.8 1.7 1023.1 0.0000 0.0000
00:33 11 8.9 87 270 0.3 0.8 1023.1 0.0000 0.0000
00:42 10.9 9 88 250 0.6 1.1 1023 0.0000 0.0000
01:03 10.8 8.9 88 232 1.7 2.2 1023 0.0000 0.0000
01:13 10.7 8.8 88 225 1.1 1.7 1022.9 0.0000 0.0000
01:22 10.7 8.8 88 238 0.8 1.9 1023 0.0000 0.0000
01:33 10.6 8.7 88 270 0.6 1.1 1022.9 0.0000 0.0000
01:43 10.6 8.7 88 270 0.6 0.8 1022.9 0.0000 0.0000
01:53 10.5 8.6 88 270 0.3 0.8 1022.9 0.0000 0.0000
02:03 10.6 8.9 89 270 0.6 1.4 1022.9 0.0000 0.0000
02:13 10.6 8.7 88 270 0.3 0.8 1022.7 0.0000 0.0000
02:23 10.5 8.6 88 300 0.6 1.1 1022.5 0.0000 0.0000
02:33 10.4 8.7 89 298 0.6 1.1 1022.5 0.0000 0.0000
02:43 10.1 8.5 90 315 0.8 1.9 1022.5 0.0000 0.0000
02:53 9.9 8.3 90 298 0.6 1.1 1022.5 0.0000 0.0000
03:03 9.8 8.4 91 270 0.6 0.8 1022.5 0.0000 0.0000
03:13 9.7 8.3 91 251 0.6 1.4 1022.5 0.0000 0.0000
03:23 9.7 8.3 91 254 0.6 0.8 1022.4 0.0000 0.0000
03:33 9.6 8.2 91 245 0.6 1.4 1022.4 0.0000 0.0000
03:43 9.5 8.1 91 270 0.6 1.1 1022.3 0.0000 0.0000
03:54 9.5 8.1 91 270 0.3 1.1 1022.3 0.0000 0.0000
04:04 9.3 7.9 91 270 0.3 1.1 1022.1 0.0000 0.0000
04:13 9.1 7.7 91 248 0.6 0.8 1022.1 0.0000 0.0000
04:23 9.1 7.9 92 270 0.6 1.4 1022.1 0.0000 0.0000
04:34 9.2 8 92 240 0.3 0.8 1022.1 0.0000 0.0000
04:44 8.4 6.9 90 316 0.8 1.9 1022.2 0.0000 0.0000
04:53 8.4 7.2 92 315 0.3 0.8 1022.3 0.0000 0.0000
05:04 8.4 7.3 93 270 0.3 1.1 1022.4 0.0000 0.0000
05:14 8.4 7.3 93 289 0.6 1.4 1022.5 0.0000 0.0000
05:24 8.4 7.3 93 313 0.8 1.4 1022.5 0.0000 0.0000
05:34 8.3 7.2 93 251 0.6 1.1 1022.4 0.0000 0.0000
05:44 8.4 7.5 94 270 0.3 0.8 1022.4 0.0000 0.0000
05:54 8.5 7.6 94 310 0.6 1.9 1022.5 0.0000 0.0000
06:04 7.9 6.8 93 290 0.6 1.1 1022.4 0.0000 0.0000
06:14 7.8 6.7 93 317 0.6 1.4 1022.4 0.0000 0.0000
06:24 8 7.1 94 321 0.6 1.1 1022.5 0.0000 0.0000
06:34 8 7.1 94 286 0.6 1.1 1022.6 0.0000 0.0000
06:45 7.6 6.5 93 270 0.3 1.1 1022.5 0.0000 0.0000
06:54 7.6 6.7 94 251 0.6 1.1 1022.4 0.0000 0.0000
07:04 7.6 6.7 94 270 0.3 0.8 1022.4 0.0000 0.0000
07:14 7.6 6.7 94 309 0.8 1.7 1022.6 0.0000 0.0000
07:25 7.4 6.5 94 311 0.6 1.1 1022.6 0.0000 0.0000
07:35 7.7 7 95 302 0.6 1.4 1022.7 0.0000 0.0000
07:44 7.7 7 95 307 0.3 0.8 1022.7 0.0000 0.0000
08:05 8.8 8.2 96 316 0.8 1.4 1023 0.0000 0.0000
08:15 9.1 8.3 95 315 0.8 1.7 1023.2 0.0000 0.0000
08:24 9 8.1 94 270 0.6 1.4 1023.3 0.0000 0.0000
08:35 9.5 8.7 95 270 0.3 0.8 1023.4 0.0000 0.0000
08:45 10 9.1 94 228 0.3 0.8 1023.4 0.0000 0.0000
08:55 10 8.8 92 315 1.1 2.2 1023.7 0.0000 0.0000
09:05 10 8.4 90 315 0.6 1.7 1023.9 0.0000 0.0000
09:15 10.4 8.8 90 270 0.3 0.8 1023.8 0.0000 0.0000
09:25 11.1 9.7 91 225 0.6 1.4 1023.6 0.0000 0.0000
09:35 11.8 10 89 234 0.8 1.7 1023.5 0.0000 0.0000
09:45 11.8 9.4 85 316 0.8 1.9 1023.8 0.0000 0.0000
09:55 12.2 9.9 86 0 0.3 0.6 1023.7 0.0000 0.0000
10:05 12.7 9.9 83 318 0.8 2.2 1023.8 0.0000 0.0000
10:16 13.1 10.5 84 270 0.6 1.1 1023.6 0.0000 0.0000
10:25 13.5 10.7 83 209 1.9 2.8 1023 0.0000 0.0000
10:35 14.6 11.6 82 212 1.4 3.1 1023.1 0.0000 0.0000
10:45 15.4 12 80 225 1.4 2.5 1023.3 0.0000 0.0000
10:56 16.1 12.3 78 237 1.1 3.9 1023.1 0.0000 0.0000
11:05 16.6 12 74 230 2.2 3.9 1023 0.0000 0.0000
11:15 16.9 12.2 74 234 1.7 3.9 1023.2 0.0000 0.0000
11:26 17.1 12.2 73 201 1.7 3.3 1023.2 0.0000 0.0000
11:36 17.6 12.5 72 222 1.7 3.3 1023 0.0000 0.0000
11:45 17.9 12.4 70 232 2.5 5 1023 0.0000 0.0000
11:56 18.1 12.5 70 225 2.5 6.1 1022.9 0.0000 0.0000
12:06 18.2 12.6 70 223 1.7 5.6 1023.1 0.0000 0.0000
12:16 18 12.5 70 226 2.5 5.3 1023.1 0.0000 0.0000
12:31 18.6 12.8 69 229 2.2 5.3 1023 0.0000 0.0000
12:41 18.7 12.9 69 221 1.9 5.3 1023.1 0.0000 0.0000
12:51 19 13.2 69 235 1.1 3.1 1022.9 0.0000 0.0000
13:00 19 12.7 67 228 2.5 5.8 1022.4 0.0000 0.0000
13:11 18.5 12.3 67 240 1.4 3.1 1022.4 0.0000 0.0000
13:21 18.3 12.1 67 225 1.7 4.2 1022.9 0.0000 0.0000
13:31 18.3 12.5 69 270 0.6 1.7 1023 0.0000 0.0000
13:41 18.4 12.8 70 228 0.8 1.9 1022.7 0.0000 0.0000
13:51 18.6 12.8 69 250 0.8 1.7 1022.9 0.0000 0.0000
14:01 19 13 68 240 1.4 3.3 1022.6 0.0000 0.0000
14:11 19.3 13 67 297 0.8 1.7 1022.7 0.0000 0.0000
14:22 19.1 13.3 69 288 0.6 1.1 1022.5 0.0000 0.0000
14:31 19.5 13.4 68 270 0.3 0.8 1022.5 0.0000 0.0000
14:41 19.9 13.4 66 311 0.6 1.9 1022.1 0.0000 0.0000
14:52 19.9 13.4 66 270 0.6 1.9 1022.1 0.0000 0.0000
15:02 19.9 13.1 65 303 0.8 2.2 1022.1 0.0000 0.0000
15:11 19.8 13 65 324 0.6 1.7 1021.9 0.0000 0.0000
15:21 19.9 13.1 65 219 0.8 2.5 1021.8 0.0000 0.0000
15:32 20.1 13.3 65 230 1.1 3.3 1022 0.0000 0.0000
15:42 20.1 12.8 63 225 1.4 5 1021.8 0.0000 0.0000
15:51 20 13 64 236 0.8 2.8 1021.7 0.0000 0.0000
16:02 19.8 13 65 248 1.1 2.8 1021.7 0.0000 0.0000
16:12 19.5 12.8 65 241 1.4 3.3 1021.7 0.0000 0.0000
16:22 19.3 12.8 66 240 1.4 3.1 1021.6 0.0000 0.0000

DAY STATISTIC

2020-10-31
TEMPERATURE
AVERAGE
12.9
HIGH
20.1
15:32
LOW
7.4
07:25
PRESSURE
AVERAGE
1022.7
HIGH
1023.9
09:05
LOW
1021.6
16:22
DEWPOINT
AVERAGE
9.9
HIGH
13.4
14:31
LOW
6.5
06:45
HUMIDITY
AVERAGE
83
HIGH
96
08:05
LOW
63
15:42
WIND SPEED
AVERAGE
0.9
HIGH
2.5
11:45
WIND GUST
AVERAGE
2.0
HIGH
6.1
11:56
WIND DIRECTION
PREVAILING
SW
36.8%
N
1.1
NE
0.0
E
0.0
SE
0.0
S
1.1
SW
36.8
W
35.8
NW
25.3
PRECIPITATION
RAIN HOUR
0.0
RAIN DAY
0.0
TEMPERATURE (°C)
LOW
7.4
HIGH
20.1
AVERAGE
12.9
PRESSURE (hpa)
LOW
1021.6
HIGH
1023.9
AVERAGE
1022.7
DEVICE